CheckWX is a tool to help pilots better visualize weather data.  It is not intended as a substitute for an official pre-flight weather briefing.

12:26:27 UTC

LTBN TAF
Kütahya Airport
Kütahya, Turkey
TAF LTBN 221040Z 2212/2221 VRB02KT 9999 FEW040

Mar-22@
12:00 UTC

Mar-22 @ 12:00 UTC

Mar-22@
21:00 UTC

Mar-22 @ 21:00 UTC

TAF LTBN 221040Z 2212/2221 VRB02KT 9999 FEW040
Wind
  • Variable at 2 KTS
Cloud Levels
  • Few at 4,000' AGL